Stuttgart Airport

EDDS · Baden-Württemberg, Alemanha

1 de outubro de 2022

Hora Código Clima Temp. Visibilidade Tecto Vento METAR/SPECI
22:50
V
13 °C 10 km+ - 240° 240° 9 kt METAR EDDS 012050Z AUTO 24009KT 210V270 9999 -SHRA FEW046 FEW///TCU 13/10 Q1017
22:20
V
13 °C 10 km+ - 220° 220° 8 kt METAR EDDS 012020Z AUTO 22008KT 150V280 9999 FEW044 13/10 Q1017
21:50
V
13 °C 10 km+ - 240° 240° 8 kt METAR EDDS 011950Z AUTO 24008KT 9999 FEW030 13/10 Q1017 NOSIG
21:20
V
13 °C 10 km+ 4.400 ft 250° 250° 6 kt METAR EDDS 011920Z AUTO 25006KT 210V290 9999 -SHRA SCT026 BKN044 FEW///TCU 13/10 Q1016 RESHRA NOSIG
20:50
V
13 °C 10 km+ - 220° 220° 6 kt METAR EDDS 011850Z AUTO 22006KT 180V320 9999 SHRA FEW043 FEW///TCU 13/10 Q1016 BECMG NSW
20:20
V
13 °C 10 km+ - 220° 220° 5 kt METAR EDDS 011820Z AUTO 22005KT 140V300 9999 -RA NSC 13/09 Q1015 TEMPO RA
19:50
V
13 °C 10 km+ - 210° 210° 5 kt METAR EDDS 011750Z AUTO 21005KT 130V300 CAVOK 13/10 Q1015 NOSIG
19:20
V
13 °C 10 km+ - 220° 220° 5 kt METAR EDDS 011720Z AUTO 22005KT 160V290 9999 VCSH FEW034 FEW///TCU 13/09 Q1014 NOSIG
18:50
V
13 °C 10 km+ - 220° 220° 6 kt METAR EDDS 011650Z AUTO 22006KT 150V270 9999 FEW029 13/10 Q1014 NOSIG
18:20
V
13 °C 10 km+ - Var Var 6 kt METAR EDDS 011620Z AUTO VRB06KT 9999 SCT027 13/10 Q1013 TEMPO 22015G25KT
17:50
V
13 °C 10 km+ - 220° 220° 7 kt METAR EDDS 011550Z AUTO 22007KT 150V260 9999 FEW026 13/10 Q1013 TEMPO 22015G25KT
17:20
V
14 °C 10 km+ - 200° 200° 7 kt METAR EDDS 011520Z AUTO 20007KT 150V270 CAVOK 14/10 Q1013 TEMPO 22015G25KT
16:50
V
14 °C 10 km+ - 210° 210° 8 kt METAR EDDS 011450Z AUTO 21008KT 150V270 9999 FEW026 14/10 Q1013 TEMPO 22015G25KT
16:20
V
14 °C 10 km+ - Var Var 7 kt METAR EDDS 011420Z AUTO VRB07KT 9999 SCT026 14/10 Q1013 TEMPO 22015G25KT
15:50
V
15 °C 10 km+ - 220° 220° 8 kt METAR EDDS 011350Z AUTO 22008KT 140V260 9999 SCT022 15/10 Q1013 TEMPO 22015G25KT
15:20
V
13 °C 10 km+ 4.600 ft 230° 230° 8 kt METAR EDDS 011320Z AUTO 23008KT 160V270 9999 FEW020 OVC046 13/09 Q1013 TEMPO 25020G30KT
14:50
M
13 °C 10 km+ 2.100 ft 230° 230° 10 kt METAR EDDS 011250Z AUTO 23010KT 170V300 9999 BKN021 BKN031 13/09 Q1012 TEMPO 25020G30KT
14:20
V
12 °C 10 km+ 3.900 ft 230° 230° 9 kt METAR EDDS 011220Z AUTO 23009KT 150V290 9999 SCT017 BKN039 12/09 Q1012 TEMPO 25020G30KT
13:50
M
12 °C 10 km+ 1.700 ft 200° 200° 9 - 19 kt METAR EDDS 011150Z AUTO 20009G19KT 130V260 9999 BKN017 BKN024 OVC030 12/09 Q1012 NOSIG
13:20
M
11 °C 10 km+ 1.700 ft 200° 200° 9 kt METAR EDDS 011120Z AUTO 20009KT 130V260 9999 BKN017 BKN032 11/09 Q1012 NOSIG
12:50
V
11 °C 10 km+ - 200° 200° 10 kt METAR EDDS 011050Z AUTO 20010KT 160V270 9999 -RA SCT019 11/09 Q1012 NOSIG
12:20
V
11 °C 10 km+ 4.300 ft 210° 210° 8 - 19 kt METAR EDDS 011020Z AUTO 21008G19KT 170V270 9999 -RA FEW020 SCT026 BKN043 11/08 Q1012 NOSIG
11:50
V
11 °C 10 km+ 4.500 ft 220° 220° 8 kt METAR EDDS 010950Z AUTO 22008KT 130V270 9999 -RA FEW027 BKN045 11/08 Q1012 NOSIG
11:20
V
10 °C 10 km+ 4.900 ft 210° 210° 9 kt METAR EDDS 010920Z AUTO 21009KT 160V310 9999 -RA BKN049 10/07 Q1011 NOSIG
10:50
V
10 °C 10 km+ - Var Var 7 kt METAR EDDS 010850Z AUTO VRB07KT 9999 -RA NSC 10/07 Q1011 NOSIG
10:20
V
10 °C 10 km+ - 200° 200° 9 kt METAR EDDS 010820Z AUTO 20009KT 110V250 9999 -RA NSC 10/06 Q1011 NOSIG
09:50
V
10 °C 10 km+ - 190° 190° 7 kt METAR EDDS 010750Z AUTO 19007KT 160V250 CAVOK 10/06 Q1011 NOSIG
09:20
V
10 °C 10 km+ - 190° 190° 4 kt METAR EDDS 010720Z AUTO 19004KT 140V250 9999 -RA NSC 10/06 Q1011 NOSIG
08:50
V
9 °C 10 km+ - 170° 170° 5 kt METAR EDDS 010650Z AUTO 17005KT 090V230 9999 -RA NSC 09/06 Q1011 NOSIG
08:20
V
9 °C 10 km+ - 160° 160° 4 kt METAR EDDS 010620Z AUTO 16004KT 100V220 9999 -RA FEW032 09/06 Q1011 NOSIG
07:50
V
9 °C 10 km+ - 180° 180° 4 kt METAR EDDS 010550Z AUTO 18004KT 110V250 CAVOK 09/05 Q1012 NOSIG
07:20
V
9 °C 10 km+ - 200° 200° 4 kt METAR EDDS 010520Z AUTO 20004KT 140V300 CAVOK 09/05 Q1012 NOSIG
06:50
V
9 °C 10 km+ - 190° 190° 7 kt METAR EDDS 010450Z AUTO 19007KT 150V230 CAVOK 09/05 Q1012 NOSIG
06:20
V
9 °C 10 km+ - Var Var 1 kt METAR EDDS 010420Z AUTO VRB01KT CAVOK 09/05 Q1012 NOSIG
05:50
V
8 °C 10 km+ - Var Var 2 kt METAR EDDS 010350Z AUTO VRB02KT CAVOK 08/06 Q1012
05:20
V
7 °C 10 km+ - Var Var 1 kt METAR EDDS 010320Z AUTO VRB01KT CAVOK 07/05 Q1013
04:50
V
8 °C 10 km+ - Var Var 2 kt METAR EDDS 010250Z AUTO VRB02KT CAVOK 08/06 Q1013
04:20
V
7 °C 10 km+ - Var Var 2 kt METAR EDDS 010220Z AUTO VRB02KT CAVOK 07/06 Q1013
03:50
V
7 °C 10 km+ - 230° 230° 3 kt METAR EDDS 010150Z AUTO 23003KT 190V260 CAVOK 07/06 Q1013
03:20
V
6 °C 10 km+ - 240° 240° 4 kt METAR EDDS 010120Z AUTO 24004KT CAVOK 06/05 Q1014
02:50
V
6 °C 10 km+ - 220° 220° 3 kt METAR EDDS 010050Z AUTO 22003KT 160V270 CAVOK 06/05 Q1014
02:20
V
6 °C 10 km+ - Var Var 1 kt METAR EDDS 010020Z AUTO VRB01KT CAVOK 06/05 Q1014
01:50
V
6 °C 10 km+ - Var Var 1 kt METAR EDDS 302350Z AUTO VRB01KT CAVOK 06/05 Q1014
01:20
V
6 °C 10 km+ - Var Var 1 kt METAR EDDS 302320Z AUTO VRB01KT CAVOK 06/05 Q1014
00:50
V
7 °C 10 km+ - Var Var 2 kt METAR EDDS 302250Z AUTO VRB02KT CAVOK 07/06 Q1014
00:20
V
7 °C 10 km+ - Var Var 2 kt METAR EDDS 302220Z AUTO VRB02KT CAVOK 07/06 Q1014

30 de setembro de 2022

Hora Código Clima Temp. Visibilidade Tecto Vento METAR/SPECI
23:50
V
7 °C 10 km+ - Var Var 2 kt METAR EDDS 302150Z AUTO VRB02KT 9999 FEW035 07/06 Q1014
23:20
V
8 °C 10 km+ - Var Var 2 kt METAR EDDS 302120Z AUTO VRB02KT CAVOK 08/05 Q1013
22:50
V
9 °C 10 km+ - Var Var 1 kt METAR EDDS 302050Z AUTO VRB01KT CAVOK 09/07 Q1013
22:20
V
9 °C 10 km+ - Var Var 2 kt METAR EDDS 302020Z AUTO VRB02KT CAVOK 09/07 Q1013
21:50
V
10 °C 10 km+ - Var Var 2 kt METAR EDDS 301950Z AUTO VRB02KT 9999 FEW047 10/07 Q1013 NOSIG
21:20
V
10 °C 10 km+ 4.700 ft Var Var 2 kt METAR EDDS 301920Z AUTO VRB02KT 9999 BKN047 10/07 Q1013 NOSIG
20:50
V
11 °C 10 km+ - 230° 230° 3 kt METAR EDDS 301850Z AUTO 23003KT 180V280 9999 SCT047 11/07 Q1013 NOSIG
20:20
V
10 °C 10 km+ - Var Var 2 kt METAR EDDS 301820Z AUTO VRB02KT CAVOK 10/06 Q1013 NOSIG
19:50
V
10 °C 10 km+ - Var Var 2 kt METAR EDDS 301750Z AUTO VRB02KT CAVOK 10/06 Q1013 NOSIG
19:20
V
12 °C 10 km+ - Var Var 1 kt METAR EDDS 301720Z AUTO VRB01KT CAVOK 12/07 Q1012 NOSIG
18:50
V
13 °C 10 km+ - Var Var 1 kt METAR EDDS 301650Z AUTO VRB01KT CAVOK 13/07 Q1012 NOSIG
18:20
V
15 °C 10 km+ - Var Var 2 kt METAR EDDS 301620Z AUTO VRB02KT CAVOK 15/05 Q1012 NOSIG
17:50
V
15 °C 10 km+ - Var Var 2 kt METAR EDDS 301550Z AUTO VRB02KT CAVOK 15/05 Q1012 NOSIG
17:20
V
16 °C 10 km+ - 020° 020° 2 kt METAR EDDS 301520Z AUTO 02002KT CAVOK 16/05 Q1011 NOSIG
16:50
V
16 °C 10 km+ - Var Var 3 kt METAR EDDS 301450Z AUTO VRB03KT CAVOK 16/05 Q1012 NOSIG
16:20
V
15 °C 10 km+ - Var Var 3 kt METAR EDDS 301420Z AUTO VRB03KT CAVOK 15/05 Q1012 NOSIG
15:50
V
15 °C 10 km+ - Var Var 4 kt METAR EDDS 301350Z AUTO VRB04KT CAVOK 15/05 Q1011 NOSIG
15:20
V
15 °C 10 km+ - Var Var 4 kt METAR EDDS 301320Z AUTO VRB04KT CAVOK 15/06 Q1011 NOSIG
14:50
V
15 °C 10 km+ - Var Var 2 kt METAR EDDS 301250Z AUTO VRB02KT CAVOK 15/05 Q1011 NOSIG
14:20
V
15 °C 10 km+ - Var Var 3 kt METAR EDDS 301220Z AUTO VRB03KT CAVOK 15/05 Q1011 NOSIG
13:50
V
14 °C 10 km+ - Var Var 4 kt METAR EDDS 301150Z AUTO VRB04KT CAVOK 14/05 Q1011 NOSIG
13:20
V
14 °C 10 km+ - 090° 090° 5 kt METAR EDDS 301120Z AUTO 09005KT 060V150 CAVOK 14/07 Q1011 NOSIG
12:50
V
13 °C 10 km+ - Var Var 3 kt METAR EDDS 301050Z AUTO VRB03KT CAVOK 13/08 Q1011 NOSIG
12:20
V
12 °C 10 km+ - Var Var 2 kt METAR EDDS 301020Z AUTO VRB02KT CAVOK 12/08 Q1011 NOSIG
11:50
V
11 °C 10 km+ - Var Var 2 kt METAR EDDS 300950Z AUTO VRB02KT 9999 FEW004 11/09 Q1011 NOSIG
11:20
V
10 °C 10 km+ - Var Var 2 kt METAR EDDS 300920Z AUTO VRB02KT 9999 SCT002 10/08 Q1011 NOSIG
10:50
M
8 °C 6 km - Var Var 1 kt METAR EDDS 300850Z AUTO VRB01KT 6000 SCT002 08/08 Q1011 BECMG SCT006
10:20
L
7 °C 600 m 100 ft Var Var 1 kt METAR EDDS 300820Z AUTO VRB01KT 1100 0600 R07/1800U BCFG BKN001 07/07 Q1011 BECMG 4000 BR BKN005
09:50
L
7 °C 250 m 200 ft Var Var 2 kt METAR EDDS 300750Z AUTO VRB02KT 0250 R07/0450N FG VV002 07/07 Q1010 BECMG 2000 BR BKN005
09:20
L
6 °C 200 m 200 ft Var Var 2 kt METAR EDDS 300720Z AUTO VRB02KT 0200 R07/0400N FG VV002 06/06 Q1010 BECMG 0600 FG
08:50
L
6 °C 200 m 200 ft Var Var 1 kt METAR EDDS 300650Z AUTO VRB01KT 0200 R07/0300N FG VV002 06/06 Q1010 BECMG 0600 FG
08:20
L
6 °C 200 m 200 ft Var Var 1 kt METAR EDDS 300620Z AUTO VRB01KT 0200 R07/0250N FG VV002 06/06 Q1009 BECMG 0600 FG
07:50
L
6 °C 250 m 300 ft Var Var 2 kt METAR EDDS 300550Z AUTO VRB02KT 0300 0250 R07/0375N FG VV003 06/06 Q1009 BECMG 0600 FG
07:20
L
5 °C 250 m 200 ft Var Var 1 kt METAR EDDS 300520Z AUTO VRB01KT 0250 R07/0500N FG VV002 05/05 Q1009 TEMPO 0400 FG
06:50
L
6 °C 300 m 200 ft Var Var 1 kt METAR EDDS 300450Z AUTO VRB01KT 0450 0300 R07/0500D FG VV002 06/06 Q1009 TEMPO 0300 FG
06:20
L
6 °C 650 m - Var Var 2 kt METAR EDDS 300420Z AUTO VRB02KT 0800 0650 R07/0900U FG SCT002 06/06 Q1008 TEMPO 1500 BR
05:50
L
6 °C 1 km - Var Var 2 kt METAR EDDS 300350Z AUTO VRB02KT 1100 1000 R07/P2000N BR FEW001 06/06 Q1008
05:20
V
6 °C 10 km+ - 060° 060° 2 kt METAR EDDS 300320Z AUTO 06002KT CAVOK 06/06 Q1008
04:50
V
6 °C 10 km+ - 040° 040° 3 kt METAR EDDS 300250Z AUTO 04003KT CAVOK 06/05 Q1008
04:20
V
7 °C 10 km+ - Var Var 1 kt METAR EDDS 300220Z AUTO VRB01KT CAVOK 07/06 Q1007
03:50
V
7 °C 10 km+ - 150° 150° 2 kt METAR EDDS 300150Z AUTO 15002KT CAVOK 07/06 Q1007
03:20
V
7 °C 10 km+ - Var Var 1 kt METAR EDDS 300120Z AUTO VRB01KT CAVOK 07/06 Q1007
02:50
V
7 °C 10 km+ - Var Var 1 kt METAR EDDS 300050Z AUTO VRB01KT CAVOK 07/06 Q1007
02:20
V
7 °C 10 km+ - 320° 320° 3 kt METAR EDDS 300020Z AUTO 32003KT CAVOK 07/06 Q1007
01:50
V
7 °C 10 km+ - 320° 320° 3 kt METAR EDDS 292350Z AUTO 32003KT CAVOK 07/06 Q1007
01:20
V
6 °C 10 km+ - Var Var 2 kt METAR EDDS 292320Z AUTO VRB02KT CAVOK 06/06 Q1007
00:50
V
7 °C 10 km+ - Var Var 1 kt METAR EDDS 292250Z AUTO VRB01KT CAVOK 07/06 Q1007
00:20
V
7 °C 10 km+ - Var Var 1 kt METAR EDDS 292220Z AUTO VRB01KT CAVOK 07/06 Q1007

29 de setembro de 2022

Hora Código Clima Temp. Visibilidade Tecto Vento METAR/SPECI
23:50
V
8 °C 10 km+ - Var Var 2 kt METAR EDDS 292150Z AUTO VRB02KT CAVOK 08/06 Q1006
23:20
V
9 °C 10 km+ - 270° 270° 3 kt METAR EDDS 292120Z AUTO 27003KT 9999 FEW037 09/06 Q1006
22:50
V
9 °C 10 km+ - Var Var 2 kt METAR EDDS 292050Z AUTO VRB02KT 9999 SCT036 09/06 Q1006
22:20
V
10 °C 10 km+ - Var Var 2 kt METAR EDDS 292020Z AUTO VRB02KT 9999 FEW036 10/06 Q1005 NOSIG
21:50
V
10 °C 10 km+ - Var Var 2 kt METAR EDDS 291950Z AUTO VRB02KT 9999 FEW035 10/06 Q1005 NOSIG
21:20
V
10 °C 10 km+ 3.600 ft Var Var 1 kt METAR EDDS 291920Z AUTO VRB01KT 9999 BKN036 BKN046 10/06 Q1005 NOSIG
20:50
V
10 °C 10 km+ - 330° 330° 4 kt METAR EDDS 291850Z AUTO 33004KT 9999 SCT041 10/06 Q1005 NOSIG
20:20
V
11 °C 10 km+ 4.700 ft Var Var 4 kt METAR EDDS 291820Z AUTO VRB04KT 9999 BKN047 11/06 Q1005
19:50
V
11 °C 10 km+ - 350° 350° 4 kt METAR EDDS 291750Z AUTO 35004KT CAVOK 11/06 Q1004 NOSIG
19:20
V
11 °C 10 km+ - 030° 030° 4 kt METAR EDDS 291720Z AUTO 03004KT 360V060 CAVOK 11/06 Q1004 NOSIG
18:50
V
12 °C 10 km+ - 020° 020° 4 kt METAR EDDS 291650Z AUTO 02004KT CAVOK 12/06 Q1004 NOSIG
18:20
V
12 °C 10 km+ - 020° 020° 4 kt METAR EDDS 291620Z AUTO 02004KT 340V040 CAVOK 12/06 Q1003 NOSIG
17:50
V
12 °C 10 km+ - 350° 350° 4 kt METAR EDDS 291550Z AUTO 35004KT 320V040 9999 FEW041 12/06 Q1003 NOSIG
17:20
V
13 °C 10 km+ - 360° 360° 5 kt METAR EDDS 291520Z AUTO 36005KT 330V060 9999 FEW035 13/06 Q1003 NOSIG
16:50
V
13 °C 10 km+ - Var Var 2 kt METAR EDDS 291450Z AUTO VRB02KT 9999 FEW036 13/05 Q1003
Dados mais antigos

Nós e terceiros acompanhamos seu comportamento na internet em nosso site com cookies. Se você continuar, nós assumimos que você concorda com nossa política de cookies. Saiba mais